Ulco, South Africa
Current Conditions -  °F | °C
As of 4:00 PM on Monday 26 Jan 2015 (Local Time) from FAKM Reporting Station
Clear Clear  
Wind Chill: 81°   Ceiling: Unl
Heat Index: 81°   Visibility: 6mi
Dew Point: 50°   Wind: 15mph
Humidity: 34%   Direction: 310°NW
Pressure: 30.03"   Gusts: NA
Location:  28.33°S, 24.21°E
Report Text: FAKM 261400Z 31013KT CAVOK 27/10 Q1017
Loading
Personal Weather Stations






























Interactive Weather Map New forecast layout! Learn more

10-Day Weather Forecast

Advertisements
Track Severe Weather on mobile